Погода Асисна 2 недели

Сан-Паулу, Бразилия

16 - 29 июня
  • 16июня
    Сегодня
    +20°
    +31°
    Ясно и безоблачно
    ВремяПогодаТемператураВлажностьДавлениеВетер, м/сВероятность осадков
    00:00Практически безоблачно+23°C50 %715 мм2.9 м/с5 %
    03:00Практически безоблачно+22°C51 %715 мм3.4 м/с5 %
    06:00Ясно и безоблачно+22°C53 %715 мм3.6 м/с5 %
    09:00Ясно и безоблачно+25°C46 %716 мм3.3 м/с5 %
    12:00Ясно и безоблачно+29°C31 %716 мм4.5 м/с5 %
    15:00Ясно и безоблачно+30°C28 %714 мм3.4 м/с5 %
    18:00Ясно и безоблачно+27°C40 %714 мм2.2 м/с5 %
    21:00Ясно и безоблачно+25°C48 %714 мм2.7 м/с5 %
  • 17июня
    Понедельник
    +19°
    +31°
    Практически безоблачно
    ВремяПогодаТемператураВлажностьДавлениеВетер, м/сВероятность осадков
    00:00Ясно и безоблачно+22°C54 %713 мм2.9 м/с5 %
    03:00Ясно и безоблачно+21°C57 %713 мм3.1 м/с5 %
    06:00Облачно с прояснениями+20°C56 %712 мм3.3 м/с5 %
    09:00Небольшая облачность+24°C46 %714 мм3.7 м/с5 %
    12:00Облачно с прояснениями+29°C32 %714 мм5.3 м/с5 %
    15:00Практически безоблачно+30°C27 %712 мм3.8 м/с5 %
    18:00Ясно и безоблачно+27°C36 %711 мм2.1 м/с5 %
    21:00Ясно и безоблачно+25°C42 %712 мм3.5 м/с5 %
  • 18июня
    Вторник
    +19°
    +31°
    Ясно и безоблачно
    ВремяПогодаТемператураВлажностьДавлениеВетер, м/сВероятность осадков
    00:00Ясно и безоблачно+22°C48 %712 мм2.7 м/с5 %
    03:00Ясно и безоблачно+20°C52 %711 мм3.2 м/с5 %
    06:00Ясно и безоблачно+20°C55 %712 мм3.3 м/с5 %
    09:00Ясно и безоблачно+24°C43 %714 мм4.1 м/с5 %
    12:00Ясно и безоблачно+29°C27 %714 мм5.5 м/с5 %
    15:00Ясно и безоблачно+30°C24 %712 мм3.9 м/с5 %
    18:00Ясно и безоблачно+28°C32 %712 мм2.3 м/с5 %
    21:00Ясно и безоблачно+24°C41 %713 мм2.7 м/с5 %
  • 19июня
    Среда
    +18°
    +31°
    Небольшая облачность
    ВремяПогодаТемператураВлажностьДавлениеВетер, м/сВероятность осадков
    00:00Ясно и безоблачно+21°C45 %713 мм2.5 м/с5 %
    03:00Ясно и безоблачно+20°C44 %712 мм3.1 м/с5 %
    06:00Ясно и безоблачно+20°C45 %712 мм3.1 м/с5 %
    09:00Практически безоблачно+24°C36 %715 мм3.6 м/с5 %
    12:00Облачно с прояснениями+29°C29 %715 мм5.0 м/с5 %
    15:00Небольшая облачность+30°C25 %713 мм3.6 м/с5 %
    18:00Ясно и безоблачно+26°C38 %712 мм2.4 м/с5 %
    21:00Ясно и безоблачно+23°C46 %713 мм2.2 м/с5 %
  • 20июня
    Четверг
    +19°
    +31°
    Ясно и безоблачно
    ВремяПогодаТемператураВлажностьДавлениеВетер, м/сВероятность осадков
    00:00Практически безоблачно+20°C50 %713 мм2.3 м/с5 %
    03:00Небольшая облачность+20°C56 %713 мм2.5 м/с5 %
    06:00Небольшая облачность+19°C54 %713 мм2.6 м/с5 %
    09:00Ясно и безоблачно+24°C41 %715 мм2.1 м/с5 %
    12:00Ясно и безоблачно+29°C26 %715 мм2.8 м/с5 %
    15:00Ясно и безоблачно+30°C24 %714 мм1.5 м/с5 %
    18:00Ясно и безоблачно+28°C33 %713 мм2.2 м/с5 %
    21:00Ясно и безоблачно+25°C37 %714 мм2.9 м/с5 %
Мы используем cookies
Соглашаюсь